createdAt,value
2018-05-06T00:00:30.161Z,6.33
2018-05-06T00:02:57.853Z,6.00
2018-05-06T00:05:25.507Z,6.17
2018-05-06T00:07:53.065Z,6.60
2018-05-06T00:10:20.763Z,6.33
2018-05-06T00:12:48.439Z,6.60
2018-05-06T00:15:16.093Z,6.20
2018-05-06T00:17:43.743Z,6.77
2018-05-06T00:20:11.329Z,6.60
2018-05-06T00:22:38.897Z,6.30
2018-05-06T00:25:06.501Z,6.30
2018-05-06T00:27:34.906Z,5.90
2018-05-06T00:30:02.465Z,5.80
2018-05-06T00:32:30.060Z,5.83
2018-05-06T00:34:57.617Z,6.90
2018-05-06T00:37:25.228Z,6.63
2018-05-06T00:39:52.789Z,6.40
2018-05-06T00:42:20.374Z,6.17
2018-05-06T00:44:48.129Z,7.07
2018-05-06T00:47:15.720Z,6.53
2018-05-06T00:49:43.316Z,6.60
2018-05-06T00:52:11.641Z,6.73
2018-05-06T00:54:44.014Z,6.77
2018-05-06T00:57:11.561Z,7.00
2018-05-06T00:59:39.135Z,6.47
2018-05-06T01:02:06.693Z,6.70
2018-05-06T01:04:34.315Z,6.20
2018-05-06T01:07:01.990Z,7.00
2018-05-06T01:09:29.569Z,5.97
2018-05-06T01:11:57.128Z,6.70
2018-05-06T01:14:24.708Z,6.50
2018-05-06T01:16:52.284Z,6.10
2018-05-06T01:19:20.634Z,7.00
2018-05-06T01:21:48.217Z,7.27
2018-05-06T01:24:15.821Z,6.73
2018-05-06T01:26:43.504Z,6.70
2018-05-06T01:29:11.164Z,7.00
2018-05-06T01:31:38.749Z,6.33
2018-05-06T01:34:06.315Z,7.63
2018-05-06T01:36:33.984Z,7.57
2018-05-06T01:39:02.318Z,6.60
2018-05-06T01:41:29.876Z,6.33
2018-05-06T01:43:57.476Z,6.53
2018-05-06T01:46:25.826Z,6.93
2018-05-06T01:48:53.447Z,7.00
2018-05-06T01:51:21.037Z,6.33
2018-05-06T01:53:48.725Z,6.73
2018-05-06T01:56:16.296Z,7.50
2018-05-06T01:58:44.736Z,6.77
2018-05-06T02:01:12.348Z,7.43
2018-05-06T02:03:39.952Z,6.80
2018-05-06T02:06:07.507Z,6.70
2018-05-06T02:08:35.092Z,6.43
2018-05-06T02:11:02.703Z,6.67
2018-05-06T02:13:30.303Z,6.73
2018-05-06T02:15:57.877Z,7.03
2018-05-06T02:18:25.437Z,7.00
2018-05-06T02:20:53.040Z,6.00
2018-05-06T02:23:20.598Z,7.00
2018-05-06T02:25:48.299Z,6.20
2018-05-06T02:28:15.849Z,6.20
2018-05-06T02:30:43.439Z,6.97
2018-05-06T02:33:11.796Z,7.40
2018-05-06T02:35:39.394Z,6.60
2018-05-06T02:38:06.937Z,6.70
2018-05-06T02:40:35.347Z,6.90
2018-05-06T02:43:02.916Z,7.40
2018-05-06T02:45:30.497Z,6.50
2018-05-06T02:47:58.048Z,6.87
2018-05-06T02:50:25.679Z,6.83
2018-05-06T02:52:53.257Z,6.73
2018-05-06T02:55:20.940Z,7.40
2018-05-06T02:57:49.298Z,6.77
2018-05-06T03:00:17.142Z,7.00
2018-05-06T03:02:44.744Z,7.47
2018-05-06T03:05:12.300Z,6.73
2018-05-06T03:07:40.674Z,6.80
2018-05-06T03:10:08.328Z,6.43
2018-05-06T03:12:36.060Z,6.60
2018-05-06T03:15:03.617Z,7.07
2018-05-06T03:17:31.329Z,7.40
2018-05-06T03:19:59.816Z,6.53
2018-05-06T03:22:27.614Z,7.40
2018-05-06T03:24:55.175Z,6.60
2018-05-06T03:27:22.781Z,7.63
2018-05-06T03:29:50.336Z,6.97
2018-05-06T03:32:17.901Z,6.87
2018-05-06T03:34:45.488Z,7.03
2018-05-06T03:37:13.878Z,6.63
2018-05-06T03:39:41.458Z,6.57
2018-05-06T03:42:09.130Z,6.80
2018-05-06T03:44:36.677Z,6.30
2018-05-06T03:47:04.322Z,6.97
2018-05-06T03:49:31.913Z,7.10
2018-05-06T03:51:59.461Z,7.37
2018-05-06T03:54:27.053Z,7.30
2018-05-06T03:57:06.480Z,7.23
2018-05-06T03:59:45.861Z,6.30
2018-05-06T04:05:10.642Z,6.60
2018-05-06T04:07:38.989Z,6.60
2018-05-06T04:10:06.731Z,6.47
2018-05-06T04:12:34.357Z,7.00
2018-05-06T04:15:02.675Z,5.90
2018-05-06T04:17:30.254Z,6.33
2018-05-06T04:19:58.090Z,6.60
2018-05-06T04:22:25.697Z,6.43
2018-05-06T04:24:53.309Z,7.40
2018-05-06T04:27:20.889Z,6.40
2018-05-06T04:29:48.453Z,6.50
2018-05-06T04:32:16.245Z,6.00
2018-05-06T04:34:43.817Z,6.50
2018-05-06T04:37:12.134Z,6.40
2018-05-06T04:39:39.834Z,6.00
2018-05-06T04:42:07.393Z,5.80
2018-05-06T04:44:34.977Z,6.33
2018-05-06T04:47:03.334Z,6.80
2018-05-06T04:49:30.938Z,6.70
2018-05-06T04:51:58.665Z,6.60
2018-05-06T04:54:27.049Z,5.13
2018-05-06T04:56:55.561Z,5.67
2018-05-06T04:59:23.117Z,6.30
2018-05-06T05:01:50.721Z,5.33
2018-05-06T05:04:18.389Z,5.83
2018-05-06T05:06:46.077Z,5.67
2018-05-06T05:09:14.397Z,5.80
2018-05-06T05:11:41.982Z,5.83
2018-05-06T05:14:09.572Z,5.40
2018-05-06T05:16:37.937Z,4.87
2018-05-06T05:19:06.254Z,5.27
2018-05-06T05:21:33.837Z,5.40
2018-05-06T05:24:01.427Z,5.77
2018-05-06T05:26:29.765Z,5.20
2018-05-06T05:28:57.348Z,4.70
2018-05-06T05:31:24.911Z,4.90
2018-05-06T05:33:52.485Z,4.70
2018-05-06T05:36:20.817Z,5.10
2018-05-06T05:38:48.409Z,5.77
2018-05-06T05:41:15.972Z,4.83
2018-05-06T05:43:43.768Z,4.43
2018-05-06T05:46:11.357Z,4.60
2018-05-06T05:48:39.039Z,5.17
2018-05-06T05:51:06.592Z,5.10
2018-05-06T05:53:34.185Z,4.83
2018-05-06T05:56:02.572Z,5.60
2018-05-06T05:58:30.273Z,5.20
2018-05-06T06:00:57.911Z,5.33
2018-05-06T06:03:25.504Z,4.50
2018-05-06T06:05:53.088Z,4.93
2018-05-06T06:08:20.635Z,4.93
2018-05-06T06:10:48.219Z,5.17
2018-05-06T06:13:15.818Z,5.17
2018-05-06T06:15:43.371Z,4.97
2018-05-06T06:18:10.941Z,4.73
2018-05-06T06:20:38.532Z,4.50
2018-05-06T06:23:06.088Z,4.97
2018-05-06T06:25:33.688Z,5.17
2018-05-06T06:28:01.278Z,5.23
2018-05-06T06:30:28.833Z,5.10
2018-05-06T06:32:56.459Z,4.87
2018-05-06T06:35:24.093Z,3.83
2018-05-06T06:37:51.681Z,4.17
2018-05-06T06:40:19.264Z,3.77
2018-05-06T06:42:46.826Z,4.73
2018-05-06T06:45:14.412Z,5.00
2018-05-06T06:47:42.094Z,4.30
2018-05-06T06:50:09.665Z,4.40
2018-05-06T06:52:38.006Z,4.20
2018-05-06T06:55:05.580Z,4.13
2018-05-06T06:57:33.139Z,4.50
2018-05-06T07:00:00.728Z,3.60
2018-05-06T07:02:28.304Z,3.77
2018-05-06T07:04:55.861Z,4.50
2018-05-06T07:07:23.457Z,4.90
2018-05-06T07:09:51.040Z,4.20
2018-05-06T07:12:19.469Z,4.20
2018-05-06T07:14:47.026Z,4.67
2018-05-06T07:17:14.621Z,5.07
2018-05-06T07:19:42.185Z,5.27
2018-05-06T07:22:09.773Z,4.70
2018-05-06T07:24:37.329Z,4.10
2018-05-06T07:27:05.685Z,3.93
2018-05-06T07:29:33.273Z,4.13
2018-05-06T07:32:01.088Z,5.27
2018-05-06T07:34:29.520Z,4.40
2018-05-06T07:36:57.163Z,5.10
2018-05-06T07:39:25.577Z,4.20
2018-05-06T07:41:53.326Z,4.70
2018-05-06T07:44:20.991Z,4.60
2018-05-06T07:46:48.565Z,5.33
2018-05-06T07:49:16.144Z,4.20
2018-05-06T07:51:43.721Z,5.43
2018-05-06T07:54:11.322Z,4.93
2018-05-06T07:56:38.865Z,4.43
2018-05-06T07:59:06.445Z,4.40
2018-05-06T08:01:34.014Z,4.20
2018-05-06T08:04:01.610Z,4.70
2018-05-06T08:06:29.170Z,4.57
2018-05-06T08:08:56.749Z,4.17
2018-05-06T08:11:25.110Z,5.00
2018-05-06T08:13:52.668Z,4.80
2018-05-06T08:16:20.421Z,5.00
2018-05-06T08:18:48.053Z,6.00
2018-05-06T08:21:15.634Z,5.07
2018-05-06T08:23:43.213Z,4.90
2018-05-06T08:26:11.591Z,4.80
2018-05-06T08:28:39.926Z,5.30
2018-05-06T08:31:07.587Z,4.17
2018-05-06T08:33:35.907Z,4.90
2018-05-06T08:36:04.256Z,4.90
2018-05-06T08:38:31.816Z,5.20
2018-05-06T08:40:59.497Z,5.40
2018-05-06T08:43:27.081Z,4.90
2018-05-06T08:45:54.733Z,5.03
2018-05-06T08:48:22.288Z,5.43
2018-05-06T08:50:50.609Z,5.10
2018-05-06T08:53:18.193Z,5.03
2018-05-06T08:55:45.759Z,5.60
2018-05-06T08:58:13.335Z,4.50
2018-05-06T09:00:41.664Z,5.37
2018-05-06T09:03:09.253Z,5.00
2018-05-06T09:05:36.943Z,4.80
2018-05-06T09:08:05.393Z,4.57
2018-05-06T09:10:32.953Z,4.83
2018-05-06T09:13:00.554Z,4.87
2018-05-06T09:15:28.153Z,4.57
2018-05-06T09:17:55.708Z,5.10
2018-05-06T09:20:23.310Z,4.93
2018-05-06T09:22:51.639Z,5.03
2018-05-06T09:25:19.245Z,4.47
2018-05-06T09:27:47.598Z,4.87
2018-05-06T09:30:15.162Z,5.20
2018-05-06T09:32:42.758Z,4.30
2018-05-06T09:35:10.355Z,4.87
2018-05-06T09:37:37.956Z,5.13
2018-05-06T09:40:05.671Z,4.77
2018-05-06T09:42:33.280Z,5.20
2018-05-06T09:45:01.629Z,4.70
2018-05-06T09:47:29.397Z,4.70
2018-05-06T09:49:57.004Z,5.23
2018-05-06T09:52:24.804Z,4.73
2018-05-06T09:54:52.389Z,4.83
2018-05-06T09:57:20.868Z,4.53
2018-05-06T09:59:49.297Z,5.83
2018-05-06T10:02:17.048Z,5.33
2018-05-06T10:04:44.601Z,4.47
2018-05-06T10:07:12.279Z,4.77
2018-05-06T10:09:39.876Z,4.50
2018-05-06T10:12:07.430Z,4.73
2018-05-06T10:14:35.019Z,4.60
2018-05-06T10:17:03.361Z,4.87
2018-05-06T10:19:30.946Z,5.20
2018-05-06T10:21:59.332Z,4.50
2018-05-06T10:24:27.716Z,5.23
2018-05-06T10:26:55.277Z,4.60
2018-05-06T10:29:22.908Z,5.40
2018-05-06T10:31:50.468Z,5.20
2018-05-06T10:34:18.822Z,4.33
2018-05-06T10:36:46.411Z,4.60
2018-05-06T10:39:14.785Z,5.00
2018-05-06T10:41:43.155Z,4.87
2018-05-06T10:44:10.851Z,4.07
2018-05-06T10:46:39.078Z,4.93
2018-05-06T10:49:06.760Z,5.47
2018-05-06T10:51:35.182Z,4.00
2018-05-06T10:54:02.856Z,4.70
2018-05-06T10:56:30.481Z,4.60
2018-05-06T10:58:58.046Z,4.73
2018-05-06T11:01:25.737Z,5.03
2018-05-06T11:03:53.323Z,4.33
2018-05-06T11:06:21.792Z,4.40
2018-05-06T11:08:49.380Z,3.70
2018-05-06T11:11:17.710Z,4.20
2018-05-06T11:13:45.362Z,4.30
2018-05-06T11:16:12.941Z,4.27
2018-05-06T11:18:40.534Z,4.13
2018-05-06T11:21:08.868Z,3.50
2018-05-06T11:23:36.512Z,3.87
2018-05-06T11:26:04.079Z,4.17
2018-05-06T11:28:31.829Z,4.27
2018-05-06T11:30:59.492Z,3.80
2018-05-06T11:33:27.138Z,4.50
2018-05-06T11:35:54.659Z,4.10
2018-05-06T11:38:22.230Z,4.20
2018-05-06T11:40:50.706Z,3.60
2018-05-06T11:43:19.210Z,4.30
2018-05-06T11:45:46.769Z,3.73
2018-05-06T11:48:14.368Z,4.10
2018-05-06T11:50:41.954Z,3.70
2018-05-06T11:53:09.554Z,4.27
2018-05-06T11:55:37.110Z,3.43
2018-05-06T11:58:04.690Z,3.97
2018-05-06T12:00:32.269Z,4.03
2018-05-06T12:02:59.873Z,4.10
2018-05-06T12:05:27.442Z,3.87
2018-05-06T12:07:55.032Z,3.70
2018-05-06T12:10:22.609Z,4.07
2018-05-06T12:12:50.209Z,3.70
2018-05-06T12:15:17.778Z,3.33
2018-05-06T12:17:45.382Z,3.83
2018-05-06T12:20:12.937Z,3.90
2018-05-06T12:22:40.545Z,3.80
2018-05-06T12:25:08.164Z,4.17
2018-05-06T12:27:35.737Z,3.73
2018-05-06T12:30:04.129Z,4.10
2018-05-06T12:32:32.460Z,3.90
2018-05-06T12:35:00.052Z,4.43
2018-05-06T12:37:28.458Z,3.70
2018-05-06T12:39:56.211Z,3.13
2018-05-06T12:42:24.524Z,3.73
2018-05-06T12:44:52.267Z,3.30
2018-05-06T12:47:19.824Z,3.97
2018-05-06T12:49:47.416Z,3.60
2018-05-06T12:52:14.977Z,3.53
2018-05-06T12:54:42.581Z,3.90
2018-05-06T12:57:10.262Z,3.17
2018-05-06T12:59:37.893Z,4.43
2018-05-06T13:02:06.229Z,4.07
2018-05-06T13:04:33.786Z,3.63
2018-05-06T13:07:01.467Z,4.10
2018-05-06T13:09:29.205Z,3.83
2018-05-06T13:11:56.805Z,3.73
2018-05-06T13:14:24.369Z,3.77
2018-05-06T13:16:52.727Z,3.23
2018-05-06T13:19:21.061Z,3.60
2018-05-06T13:21:48.711Z,3.87
2018-05-06T13:24:16.305Z,3.80
2018-05-06T13:26:43.888Z,3.03
2018-05-06T13:29:11.494Z,3.60
2018-05-06T13:31:39.131Z,3.17
2018-05-06T13:34:06.889Z,3.60
2018-05-06T13:36:34.545Z,3.83
2018-05-06T13:39:02.912Z,3.80
2018-05-06T13:41:31.241Z,3.30
2018-05-06T13:43:59.038Z,3.07
2018-05-06T13:46:26.681Z,3.47
2018-05-06T13:48:54.286Z,3.50
2018-05-06T13:51:22.609Z,2.93
2018-05-06T13:53:50.285Z,3.20
2018-05-06T13:56:17.853Z,3.23
2018-05-06T13:58:45.417Z,3.27
2018-05-06T14:01:13.020Z,4.03
2018-05-06T14:03:40.614Z,3.30
2018-05-06T14:06:08.181Z,3.40
2018-05-06T14:08:35.784Z,3.30
2018-05-06T14:11:03.349Z,3.17
2018-05-06T14:13:30.965Z,2.60
2018-05-06T14:15:58.638Z,3.13
2018-05-06T14:18:26.189Z,3.90
2018-05-06T14:20:53.775Z,3.10
2018-05-06T14:23:21.391Z,2.70
2018-05-06T14:25:49.062Z,2.73
2018-05-06T14:28:16.641Z,2.70
2018-05-06T14:30:45.000Z,2.60
2018-05-06T14:33:12.624Z,2.40
2018-05-06T14:35:40.305Z,2.80
2018-05-06T14:38:07.869Z,2.27
2018-05-06T14:40:35.556Z,2.97
2018-05-06T14:43:03.899Z,2.83
2018-05-06T14:45:31.497Z,3.20
2018-05-06T14:48:11.825Z,2.93
2018-05-06T14:50:39.460Z,2.50
2018-05-06T14:53:07.100Z,2.83
2018-05-06T14:55:34.768Z,2.40
2018-05-06T14:58:02.368Z,2.57
2018-05-06T15:00:29.957Z,2.57
2018-05-06T15:02:57.543Z,2.27
2018-05-06T15:05:25.110Z,2.53
2018-05-06T15:07:52.802Z,2.23
2018-05-06T15:10:20.444Z,2.53
2018-05-06T15:12:48.760Z,2.27
2018-05-06T15:15:17.082Z,2.40
2018-05-06T15:17:44.838Z,2.27
2018-05-06T15:20:12.397Z,2.60
2018-05-06T15:22:40.014Z,2.80
2018-05-06T15:25:08.336Z,2.70
2018-05-06T15:27:35.906Z,2.50
2018-05-06T15:30:03.525Z,2.97
2018-05-06T15:32:31.204Z,2.40
2018-05-06T15:34:58.792Z,2.30
2018-05-06T15:37:26.369Z,2.83
2018-05-06T15:39:54.563Z,2.50
2018-05-06T15:42:22.067Z,2.33
2018-05-06T15:44:49.764Z,2.20
2018-05-06T15:47:17.442Z,3.07
2018-05-06T15:49:45.788Z,2.30
2018-05-06T15:52:13.410Z,2.50
2018-05-06T15:54:41.183Z,2.57
2018-05-06T15:57:08.748Z,2.40
2018-05-06T15:59:36.370Z,1.97
2018-05-06T16:02:15.761Z,2.60
2018-05-06T16:04:43.346Z,2.20
2018-05-06T16:07:11.681Z,2.67
2018-05-06T16:09:39.438Z,2.60
2018-05-06T16:12:07.168Z,2.70
2018-05-06T16:14:34.714Z,2.50
2018-05-06T16:17:03.029Z,2.30
2018-05-06T16:19:30.598Z,2.33
2018-05-06T16:21:58.197Z,2.17
2018-05-06T16:24:26.557Z,2.23
2018-05-06T16:26:54.150Z,2.37
2018-05-06T16:29:21.791Z,1.83
2018-05-06T16:31:49.347Z,1.80
2018-05-06T16:34:16.933Z,2.37
2018-05-06T16:36:44.493Z,2.23
2018-05-06T16:39:12.196Z,2.00
2018-05-06T16:41:39.812Z,2.47
2018-05-06T16:44:07.401Z,2.20
2018-05-06T16:46:35.055Z,2.20
2018-05-06T16:49:02.588Z,2.73
2018-05-06T16:51:30.271Z,2.67
2018-05-06T16:53:57.853Z,2.43
2018-05-06T16:56:25.548Z,2.90
2018-05-06T16:58:53.897Z,2.00
2018-05-06T17:01:21.533Z,2.50
2018-05-06T17:03:49.096Z,2.27
2018-05-06T17:06:16.780Z,2.27
2018-05-06T17:08:44.354Z,2.00
2018-05-06T17:11:12.778Z,2.03
2018-05-06T17:13:40.369Z,2.53
2018-05-06T17:16:07.966Z,2.50
2018-05-06T17:18:36.287Z,2.20
2018-05-06T17:21:03.853Z,2.73
2018-05-06T17:23:31.462Z,2.50
2018-05-06T17:25:59.789Z,2.30
2018-05-06T17:28:27.396Z,2.90
2018-05-06T17:30:55.013Z,2.47
2018-05-06T17:33:22.601Z,1.97
2018-05-06T17:35:50.211Z,2.30
2018-05-06T17:38:17.917Z,2.37
2018-05-06T17:40:45.495Z,2.50
2018-05-06T17:43:13.845Z,2.80
2018-05-06T17:45:41.469Z,2.07
2018-05-06T17:48:09.185Z,2.70
2018-05-06T17:50:37.509Z,2.20
2018-05-06T17:53:05.123Z,2.33
2018-05-06T17:55:33.474Z,2.37
2018-05-06T17:58:01.151Z,2.80
2018-05-06T18:00:28.734Z,2.30
2018-05-06T18:02:56.342Z,2.33
2018-05-06T18:05:23.893Z,2.30
2018-05-06T18:07:51.454Z,2.10
2018-05-06T18:10:19.053Z,2.17
2018-05-06T18:12:47.408Z,2.63
2018-05-06T18:15:15.003Z,2.33
2018-05-06T18:17:42.582Z,2.17
2018-05-06T18:20:10.334Z,2.43
2018-05-06T18:22:37.981Z,2.03
2018-05-06T18:25:05.546Z,2.07
2018-05-06T18:27:33.112Z,2.47
2018-05-06T18:30:00.710Z,2.13
2018-05-06T18:32:28.270Z,2.47
2018-05-06T18:34:55.902Z,1.90
2018-05-06T18:37:23.476Z,1.77
2018-05-06T18:39:51.045Z,2.27
2018-05-06T18:42:18.654Z,2.40
2018-05-06T18:44:46.261Z,1.93
2018-05-06T18:47:13.856Z,2.20
2018-05-06T18:49:42.258Z,2.23
2018-05-06T18:52:09.849Z,2.50
2018-05-06T18:54:37.440Z,2.40
2018-05-06T18:57:05.802Z,2.40
2018-05-06T18:59:33.397Z,2.20
2018-05-06T19:02:00.986Z,2.10
2018-05-06T19:04:28.601Z,2.53
2018-05-06T19:06:57.125Z,2.10
2018-05-06T19:09:24.696Z,2.30
2018-05-06T19:11:52.319Z,2.40
2018-05-06T19:14:20.031Z,2.00
2018-05-06T19:16:47.633Z,2.27
2018-05-06T19:19:15.972Z,2.53
2018-05-06T19:21:43.625Z,2.67
2018-05-06T19:24:11.221Z,2.47
2018-05-06T19:26:39.745Z,2.70
2018-05-06T19:29:07.294Z,2.13
2018-05-06T19:31:34.871Z,2.20
2018-05-06T19:34:02.453Z,2.40
2018-05-06T19:36:30.154Z,2.07
2018-05-06T19:38:57.871Z,2.43
2018-05-06T19:41:25.434Z,2.63
2018-05-06T19:43:53.039Z,2.50
2018-05-06T19:46:20.618Z,2.77
2018-05-06T19:48:48.223Z,2.53
2018-05-06T19:51:15.807Z,2.50
2018-05-06T19:53:44.173Z,2.60
2018-05-06T19:56:12.593Z,2.40
2018-05-06T19:58:40.361Z,3.40
2018-05-06T20:01:08.016Z,2.70
2018-05-06T20:03:35.737Z,2.80
2018-05-06T20:06:04.145Z,2.33
2018-05-06T20:08:31.710Z,2.97
2018-05-06T20:10:59.311Z,3.20
2018-05-06T20:13:26.882Z,3.07
2018-05-06T20:15:55.252Z,3.53
2018-05-06T20:18:22.821Z,3.07
2018-05-06T20:20:51.196Z,3.37
2018-05-06T20:23:19.538Z,3.50
2018-05-06T20:25:47.236Z,3.30
2018-05-06T20:28:15.682Z,3.47
2018-05-06T20:30:43.292Z,3.60
2018-05-06T20:33:10.895Z,3.20
2018-05-06T20:35:38.501Z,2.97
2018-05-06T20:38:06.846Z,3.00
2018-05-06T20:40:34.622Z,4.03
2018-05-06T20:43:02.190Z,3.30
2018-05-06T20:45:30.538Z,3.40
2018-05-06T20:47:58.138Z,3.63
2018-05-06T20:50:26.473Z,3.10
2018-05-06T20:52:54.083Z,2.80
2018-05-06T20:55:21.717Z,2.90
2018-05-06T20:57:49.258Z,2.70
2018-05-06T21:00:16.841Z,2.43
2018-05-06T21:02:45.365Z,2.50
2018-05-06T21:05:12.976Z,2.87
2018-05-06T21:07:40.521Z,2.53
2018-05-06T21:10:08.081Z,3.17
2018-05-06T21:12:35.685Z,3.10
2018-05-06T21:15:03.252Z,2.80
2018-05-06T21:17:30.857Z,2.40
2018-05-06T21:19:58.438Z,2.17
2018-05-06T21:22:26.774Z,2.43
2018-05-06T21:24:54.490Z,2.80
2018-05-06T21:27:22.059Z,2.10
2018-05-06T21:29:49.640Z,2.33
2018-05-06T21:32:17.217Z,2.73
2018-05-06T21:34:44.814Z,2.80
2018-05-06T21:37:13.222Z,2.80
2018-05-06T21:39:40.838Z,2.50
2018-05-06T21:42:09.161Z,2.90
2018-05-06T21:44:36.749Z,2.40
2018-05-06T21:47:04.325Z,7.77
2018-05-06T21:49:32.072Z,5.90
2018-05-06T21:51:59.709Z,4.47
2018-05-06T21:54:27.380Z,4.53
2018-05-06T21:56:54.970Z,4.50
2018-05-06T21:59:23.509Z,3.93
2018-05-06T22:01:51.069Z,3.97
2018-05-06T22:04:18.617Z,3.53
2018-05-06T22:06:46.184Z,3.20
2018-05-06T22:09:13.844Z,2.87
2018-05-06T22:11:41.444Z,2.50
2018-05-06T22:14:09.776Z,2.97
2018-05-06T22:16:37.378Z,2.27
2018-05-06T22:19:05.833Z,2.43
2018-05-06T22:21:33.441Z,2.67
2018-05-06T22:24:01.126Z,2.60
2018-05-06T22:26:29.595Z,2.50
2018-05-06T22:28:57.263Z,2.33
2018-05-06T22:31:24.877Z,2.50
2018-05-06T22:33:53.209Z,2.60
2018-05-06T22:36:20.762Z,2.23
2018-05-06T22:38:48.385Z,2.67
2018-05-06T22:41:16.765Z,2.47
2018-05-06T22:43:45.090Z,2.30
2018-05-06T22:46:12.647Z,2.10
2018-05-06T22:48:40.257Z,2.13
2018-05-06T22:51:08.805Z,2.97
2018-05-06T22:53:36.402Z,2.37
2018-05-06T22:56:04.744Z,2.97
2018-05-06T22:58:32.333Z,2.50
2018-05-06T23:01:00.670Z,12.83
2018-05-06T23:03:28.369Z,9.40
2018-05-06T23:05:56.876Z,2.30
2018-05-06T23:08:24.538Z,3.00
2018-05-06T23:10:52.252Z,2.27
2018-05-06T23:13:19.816Z,2.30
2018-05-06T23:15:48.199Z,2.93
2018-05-06T23:18:16.603Z,2.53
2018-05-06T23:20:44.169Z,2.60
2018-05-06T23:23:11.733Z,2.40
2018-05-06T23:25:39.342Z,2.60
2018-05-06T23:28:06.925Z,2.47
2018-05-06T23:30:34.656Z,2.50
2018-05-06T23:33:02.320Z,2.13
2018-05-06T23:35:29.906Z,2.57
2018-05-06T23:37:57.513Z,2.03
2018-05-06T23:40:25.096Z,2.20
2018-05-06T23:42:52.804Z,2.00
2018-05-06T23:45:20.353Z,2.33
2018-05-06T23:47:47.917Z,2.33
2018-05-06T23:50:15.647Z,2.03
2018-05-06T23:52:43.973Z,2.47
2018-05-06T23:55:11.647Z,1.80
2018-05-06T23:57:39.167Z,1.60
